sensor_id;sensor_type;location;lat;lon;timestamp;temperature;humidity
53204;DHT22;39086;54.424;18.456;2022-08-02T00:00:57;15.00;99.90
53204;DHT22;39086;54.424;18.456;2022-08-02T00:02:06;14.90;99.90
53204;DHT22;39086;54.424;18.456;2022-08-02T00:03:10;14.90;99.90
53204;DHT22;39086;54.424;18.456;2022-08-02T00:04:12;14.90;99.90
53204;DHT22;39086;54.424;18.456;2022-08-02T00:05:22;14.90;99.90
53204;DHT22;39086;54.424;18.456;2022-08-02T00:06:25;14.90;99.90
53204;DHT22;39086;54.424;18.456;2022-08-02T00:07:28;14.90;99.90
53204;DHT22;39086;54.424;18.456;2022-08-02T00:08:30;15.00;99.90
53204;DHT22;39086;54.424;18.456;2022-08-02T00:09:34;15.00;99.90
53204;DHT22;39086;54.424;18.456;2022-08-02T00:10:49;14.90;99.90
53204;DHT22;39086;54.424;18.456;2022-08-02T00:11:53;14.90;99.90
53204;DHT22;39086;54.424;18.456;2022-08-02T00:12:55;15.00;99.90
53204;DHT22;39086;54.424;18.456;2022-08-02T00:14:00;15.00;99.90
53204;DHT22;39086;54.424;18.456;2022-08-02T00:15:03;15.00;99.90
53204;DHT22;39086;54.424;18.456;2022-08-02T00:16:17;14.90;99.90
53204;DHT22;39086;54.424;18.456;2022-08-02T00:17:19;15.00;99.90
53204;DHT22;39086;54.424;18.456;2022-08-02T00:18:23;15.00;99.90
53204;DHT22;39086;54.424;18.456;2022-08-02T00:19:25;15.00;99.90
53204;DHT22;39086;54.424;18.456;2022-08-02T00:20:35;15.00;99.90
53204;DHT22;39086;54.424;18.456;2022-08-02T00:21:38;15.10;99.90
53204;DHT22;39086;54.424;18.456;2022-08-02T00:22:41;15.10;99.90
53204;DHT22;39086;54.424;18.456;2022-08-02T00:23:43;15.10;99.90
53204;DHT22;39086;54.424;18.456;2022-08-02T00:25:13;15.10;99.90
53204;DHT22;39086;54.424;18.456;2022-08-02T00:26:16;15.10;99.90
53204;DHT22;39086;54.424;18.456;2022-08-02T00:27:19;15.00;99.90
53204;DHT22;39086;54.424;18.456;2022-08-02T00:28:23;15.10;99.90
53204;DHT22;39086;54.424;18.456;2022-08-02T00:29:30;15.00;99.90
53204;DHT22;39086;54.424;18.456;2022-08-02T00:30:54;15.00;99.90
53204;DHT22;39086;54.424;18.456;2022-08-02T00:31:56;14.90;99.90
53204;DHT22;39086;54.424;18.456;2022-08-02T00:33:00;14.90;99.90
53204;DHT22;39086;54.424;18.456;2022-08-02T00:34:03;14.90;99.90
53204;DHT22;39086;54.424;18.456;2022-08-02T00:35:31;14.90;99.90
53204;DHT22;39086;54.424;18.456;2022-08-02T00:36:34;15.00;99.90
53204;DHT22;39086;54.424;18.456;2022-08-02T00:37:38;14.90;99.90
53204;DHT22;39086;54.424;18.456;2022-08-02T00:38:41;15.00;99.90
53204;DHT22;39086;54.424;18.456;2022-08-02T00:39:51;15.00;99.90
53204;DHT22;39086;54.424;18.456;2022-08-02T00:40:54;15.00;99.90
53204;DHT22;39086;54.424;18.456;2022-08-02T00:41:59;15.00;99.90
53204;DHT22;39086;54.424;18.456;2022-08-02T00:43:03;15.10;99.90
53204;DHT22;39086;54.424;18.456;2022-08-02T00:44:08;15.10;99.90
53204;DHT22;39086;54.424;18.456;2022-08-02T00:45:18;15.00;99.90
53204;DHT22;39086;54.424;18.456;2022-08-02T00:46:41;15.10;99.90
53204;DHT22;39086;54.424;18.456;2022-08-02T00:47:51;15.00;99.90
53204;DHT22;39086;54.424;18.456;2022-08-02T00:49:00;15.10;99.90
53204;DHT22;39086;54.424;18.456;2022-08-02T00:50:04;15.10;99.90
53204;DHT22;39086;54.424;18.456;2022-08-02T00:51:07;15.10;99.90
53204;DHT22;39086;54.424;18.456;2022-08-02T00:52:10;15.20;99.90
53204;DHT22;39086;54.424;18.456;2022-08-02T00:53:13;15.20;99.90
53204;DHT22;39086;54.424;18.456;2022-08-02T00:54:23;15.20;99.90
53204;DHT22;39086;54.424;18.456;2022-08-02T00:55:29;15.20;99.90
53204;DHT22;39086;54.424;18.456;2022-08-02T00:56:33;15.30;99.90
53204;DHT22;39086;54.424;18.456;2022-08-02T00:57:36;15.30;99.90
53204;DHT22;39086;54.424;18.456;2022-08-02T00:58:39;15.30;99.90
53204;DHT22;39086;54.424;18.456;2022-08-02T01:03:01;15.50;99.90
53204;DHT22;39086;54.424;18.456;2022-08-02T01:04:09;15.50;99.90
53204;DHT22;39086;54.424;18.456;2022-08-02T01:05:30;15.50;99.90
53204;DHT22;39086;54.424;18.456;2022-08-02T01:06:54;15.60;99.90
53204;DHT22;39086;54.424;18.456;2022-08-02T01:07:56;15.70;99.90
53204;DHT22;39086;54.424;18.456;2022-08-02T01:09:00;15.70;99.90
53204;DHT22;39086;54.424;18.456;2022-08-02T01:10:04;15.70;99.90
53204;DHT22;39086;54.424;18.456;2022-08-02T01:11:20;15.80;99.90
53204;DHT22;39086;54.424;18.456;2022-08-02T01:12:23;15.70;99.90
53204;DHT22;39086;54.424;18.456;2022-08-02T01:13:27;15.80;99.90
53204;DHT22;39086;54.424;18.456;2022-08-02T01:14:30;15.80;99.90
53204;DHT22;39086;54.424;18.456;2022-08-02T01:15:35;15.80;99.90
53204;DHT22;39086;54.424;18.456;2022-08-02T01:16:51;15.70;99.90
53204;DHT22;39086;54.424;18.456;2022-08-02T01:18:00;15.70;99.90
53204;DHT22;39086;54.424;18.456;2022-08-02T01:19:11;15.80;99.90
53204;DHT22;39086;54.424;18.456;2022-08-02T01:20:33;15.70;99.90
53204;DHT22;39086;54.424;18.456;2022-08-02T01:21:49;15.70;99.90
53204;DHT22;39086;54.424;18.456;2022-08-02T01:23:24;15.80;99.90
53204;DHT22;39086;54.424;18.456;2022-08-02T01:24:57;15.80;99.90
53204;DHT22;39086;54.424;18.456;2022-08-02T01:26:22;15.60;99.90
53204;DHT22;39086;54.424;18.456;2022-08-02T01:27:36;15.60;99.90
53204;DHT22;39086;54.424;18.456;2022-08-02T01:28:53;15.60;99.90
53204;DHT22;39086;54.424;18.456;2022-08-02T01:30:00;15.50;99.90
53204;DHT22;39086;54.424;18.456;2022-08-02T01:31:09;15.60;99.90
53204;DHT22;39086;54.424;18.456;2022-08-02T01:32:17;15.60;99.90
53204;DHT22;39086;54.424;18.456;2022-08-02T01:33:20;15.50;99.90
53204;DHT22;39086;54.424;18.456;2022-08-02T01:34:34;15.60;99.90
53204;DHT22;39086;54.424;18.456;2022-08-02T01:35:41;15.60;99.90
53204;DHT22;39086;54.424;18.456;2022-08-02T01:36:56;15.60;99.90
53204;DHT22;39086;54.424;18.456;2022-08-02T01:38:05;15.50;99.90
53204;DHT22;39086;54.424;18.456;2022-08-02T01:39:18;15.60;99.90
53204;DHT22;39086;54.424;18.456;2022-08-02T01:40:36;15.50;99.90
53204;DHT22;39086;54.424;18.456;2022-08-02T01:41:45;15.70;99.90
53204;DHT22;39086;54.424;18.456;2022-08-02T01:42:59;15.60;99.90
53204;DHT22;39086;54.424;18.456;2022-08-02T01:44:04;15.80;99.90
53204;DHT22;39086;54.424;18.456;2022-08-02T01:45:17;15.80;99.90
53204;DHT22;39086;54.424;18.456;2022-08-02T01:46:20;15.80;99.90
53204;DHT22;39086;54.424;18.456;2022-08-02T01:47:28;15.90;99.90
53204;DHT22;39086;54.424;18.456;2022-08-02T01:48:32;15.90;99.90
53204;DHT22;39086;54.424;18.456;2022-08-02T01:49:37;15.90;99.90
53204;DHT22;39086;54.424;18.456;2022-08-02T01:50:48;15.90;99.90
53204;DHT22;39086;54.424;18.456;2022-08-02T01:51:53;15.90;99.90
53204;DHT22;39086;54.424;18.456;2022-08-02T01:53:17;15.90;99.90
53204;DHT22;39086;54.424;18.456;2022-08-02T01:54:22;15.80;99.90
53204;DHT22;39086;54.424;18.456;2022-08-02T01:55:36;15.80;99.90
53204;DHT22;39086;54.424;18.456;2022-08-02T01:57:02;15.70;99.90
53204;DHT22;39086;54.424;18.456;2022-08-02T01:58:07;15.70;99.90
53204;DHT22;39086;54.424;18.456;2022-08-02T01:59:19;15.70;99.90
53204;DHT22;39086;54.424;18.456;2022-08-02T02:00:24;15.60;99.90
53204;DHT22;39086;54.424;18.456;2022-08-02T02:01:36;15.70;99.90
53204;DHT22;39086;54.424;18.456;2022-08-02T02:02:42;15.60;99.90
53204;DHT22;39086;54.424;18.456;2022-08-02T02:03:47;15.50;99.90
53204;DHT22;39086;54.424;18.456;2022-08-02T02:04:51;15.50;99.90
53204;DHT22;39086;54.424;18.456;2022-08-02T02:06:03;15.50;99.90
53204;DHT22;39086;54.424;18.456;2022-08-02T02:07:07;15.50;99.90
53204;DHT22;39086;54.424;18.456;2022-08-02T02:08:11;15.50;99.90
53204;DHT22;39086;54.424;18.456;2022-08-02T02:09:29;15.40;99.90
53204;DHT22;39086;54.424;18.456;2022-08-02T02:10:59;15.40;99.90
53204;DHT22;39086;54.424;18.456;2022-08-02T02:12:31;15.40;99.90
53204;DHT22;39086;54.424;18.456;2022-08-02T02:13:36;15.40;99.90
53204;DHT22;39086;54.424;18.456;2022-08-02T02:14:43;15.40;99.90
53204;DHT22;39086;54.424;18.456;2022-08-02T02:15:54;15.40;99.90
53204;DHT22;39086;54.424;18.456;2022-08-02T02:16:58;15.40;99.90
53204;DHT22;39086;54.424;18.456;2022-08-02T02:18:02;15.30;99.90
53204;DHT22;39086;54.424;18.456;2022-08-02T02:19:17;15.40;99.90
53204;DHT22;39086;54.424;18.456;2022-08-02T02:20:23;15.40;99.90
53204;DHT22;39086;54.424;18.456;2022-08-02T02:21:32;15.40;99.90
53204;DHT22;39086;54.424;18.456;2022-08-02T02:22:42;15.40;99.90
53204;DHT22;39086;54.424;18.456;2022-08-02T02:23:49;15.40;99.90
53204;DHT22;39086;54.424;18.456;2022-08-02T02:24:51;15.40;99.90
53204;DHT22;39086;54.424;18.456;2022-08-02T02:26:03;15.40;99.90
53204;DHT22;39086;54.424;18.456;2022-08-02T02:27:08;15.40;99.90
53204;DHT22;39086;54.424;18.456;2022-08-02T02:28:22;15.30;99.90
53204;DHT22;39086;54.424;18.456;2022-08-02T02:29:32;15.40;99.90
53204;DHT22;39086;54.424;18.456;2022-08-02T02:30:37;15.40;99.90
53204;DHT22;39086;54.424;18.456;2022-08-02T02:31:51;15.30;99.90
53204;DHT22;39086;54.424;18.456;2022-08-02T02:33:01;15.40;99.90
53204;DHT22;39086;54.424;18.456;2022-08-02T02:34:15;15.30;99.90
53204;DHT22;39086;54.424;18.456;2022-08-02T02:35:20;15.30;99.90
53204;DHT22;39086;54.424;18.456;2022-08-02T02:36:24;15.40;99.90
53204;DHT22;39086;54.424;18.456;2022-08-02T02:37:27;15.40;99.90
53204;DHT22;39086;54.424;18.456;2022-08-02T02:38:39;15.40;99.90
53204;DHT22;39086;54.424;18.456;2022-08-02T02:39:44;15.30;99.90
53204;DHT22;39086;54.424;18.456;2022-08-02T02:40:48;15.40;99.90
53204;DHT22;39086;54.424;18.456;2022-08-02T02:41:52;15.40;99.90
53204;DHT22;39086;54.424;18.456;2022-08-02T02:42:59;15.40;99.90
53204;DHT22;39086;54.424;18.456;2022-08-02T02:44:12;15.40;99.90
53204;DHT22;39086;54.424;18.456;2022-08-02T02:45:16;15.30;99.90
53204;DHT22;39086;54.424;18.456;2022-08-02T02:46:22;15.40;99.90
53204;DHT22;39086;54.424;18.456;2022-08-02T02:47:27;15.30;99.90
53204;DHT22;39086;54.424;18.456;2022-08-02T02:48:42;15.30;99.90
53204;DHT22;39086;54.424;18.456;2022-08-02T02:49:53;15.20;99.90
53204;DHT22;39086;54.424;18.456;2022-08-02T02:51:03;15.20;99.90
53204;DHT22;39086;54.424;18.456;2022-08-02T02:52:15;15.30;99.90
53204;DHT22;39086;54.424;18.456;2022-08-02T02:53:19;15.30;99.90
53204;DHT22;39086;54.424;18.456;2022-08-02T02:54:23;15.40;99.90
53204;DHT22;39086;54.424;18.456;2022-08-02T02:55:36;15.30;99.90
53204;DHT22;39086;54.424;18.456;2022-08-02T02:57:05;15.30;99.90
53204;DHT22;39086;54.424;18.456;2022-08-02T02:58:08;15.30;99.90
53204;DHT22;39086;54.424;18.456;2022-08-02T02:59:12;15.20;99.90
53204;DHT22;39086;54.424;18.456;2022-08-02T03:00:23;15.20;99.90
53204;DHT22;39086;54.424;18.456;2022-08-02T03:01:42;15.20;99.90
53204;DHT22;39086;54.424;18.456;2022-08-02T03:02:58;15.20;99.90
53204;DHT22;39086;54.424;18.456;2022-08-02T03:04:03;15.20;99.90
53204;DHT22;39086;54.424;18.456;2022-08-02T03:05:08;15.20;99.90
53204;DHT22;39086;54.424;18.456;2022-08-02T03:06:18;15.40;99.90
53204;DHT22;39086;54.424;18.456;2022-08-02T03:07:21;15.20;99.90
53204;DHT22;39086;54.424;18.456;2022-08-02T03:08:25;15.20;99.90
53204;DHT22;39086;54.424;18.456;2022-08-02T03:09:27;15.20;99.90
53204;DHT22;39086;54.424;18.456;2022-08-02T03:10:44;15.20;99.90
53204;DHT22;39086;54.424;18.456;2022-08-02T03:11:48;15.20;99.90
53204;DHT22;39086;54.424;18.456;2022-08-02T03:12:51;15.20;99.90
53204;DHT22;39086;54.424;18.456;2022-08-02T03:13:54;15.30;99.90
53204;DHT22;39086;54.424;18.456;2022-08-02T03:14:58;15.30;99.90
53204;DHT22;39086;54.424;18.456;2022-08-02T03:16:07;15.20;99.90
53204;DHT22;39086;54.424;18.456;2022-08-02T03:17:13;15.20;99.90
53204;DHT22;39086;54.424;18.456;2022-08-02T03:18:30;15.20;99.90
53204;DHT22;39086;54.424;18.456;2022-08-02T03:19:33;15.10;99.90
53204;DHT22;39086;54.424;18.456;2022-08-02T03:20:36;15.20;99.90
53204;DHT22;39086;54.424;18.456;2022-08-02T03:21:47;15.20;99.90
53204;DHT22;39086;54.424;18.456;2022-08-02T03:23:00;15.10;99.90
53204;DHT22;39086;54.424;18.456;2022-08-02T03:24:02;15.10;99.90
53204;DHT22;39086;54.424;18.456;2022-08-02T03:25:07;15.10;99.90
53204;DHT22;39086;54.424;18.456;2022-08-02T03:26:09;15.20;99.90
53204;DHT22;39086;54.424;18.456;2022-08-02T03:27:13;15.00;99.90
53204;DHT22;39086;54.424;18.456;2022-08-02T03:28:22;15.10;99.90
53204;DHT22;39086;54.424;18.456;2022-08-02T03:29:31;15.00;99.90
53204;DHT22;39086;54.424;18.456;2022-08-02T03:30:35;15.00;99.90
53204;DHT22;39086;54.424;18.456;2022-08-02T03:31:44;15.00;99.90
53204;DHT22;39086;54.424;18.456;2022-08-02T03:32:48;14.90;99.90
53204;DHT22;39086;54.424;18.456;2022-08-02T03:33:59;15.00;99.90
53204;DHT22;39086;54.424;18.456;2022-08-02T03:35:11;14.90;99.90
53204;DHT22;39086;54.424;18.456;2022-08-02T03:36:20;15.00;99.90
53204;DHT22;39086;54.424;18.456;2022-08-02T03:37:25;14.90;99.90
53204;DHT22;39086;54.424;18.456;2022-08-02T03:38:28;15.00;99.90
53204;DHT22;39086;54.424;18.456;2022-08-02T03:39:33;15.10;99.90
53204;DHT22;39086;54.424;18.456;2022-08-02T03:40:54;15.00;99.90
53204;DHT22;39086;54.424;18.456;2022-08-02T03:41:58;15.00;99.90
53204;DHT22;39086;54.424;18.456;2022-08-02T03:43:02;14.90;99.90
53204;DHT22;39086;54.424;18.456;2022-08-02T03:44:14;15.00;99.90
53204;DHT22;39086;54.424;18.456;2022-08-02T03:45:26;15.10;99.90
53204;DHT22;39086;54.424;18.456;2022-08-02T03:46:30;15.00;99.90
53204;DHT22;39086;54.424;18.456;2022-08-02T03:47:36;15.00;99.90
53204;DHT22;39086;54.424;18.456;2022-08-02T03:48:40;15.00;99.90
53204;DHT22;39086;54.424;18.456;2022-08-02T03:49:51;15.00;99.90
53204;DHT22;39086;54.424;18.456;2022-08-02T03:50:54;15.10;99.90
53204;DHT22;39086;54.424;18.456;2022-08-02T03:52:05;15.10;99.90
53204;DHT22;39086;54.424;18.456;2022-08-02T03:53:09;15.10;99.90
53204;DHT22;39086;54.424;18.456;2022-08-02T03:54:21;15.20;99.90
53204;DHT22;39086;54.424;18.456;2022-08-02T03:55:46;15.10;99.90
53204;DHT22;39086;54.424;18.456;2022-08-02T03:56:57;15.10;99.90
53204;DHT22;39086;54.424;18.456;2022-08-02T03:58:16;15.20;99.90
53204;DHT22;39086;54.424;18.456;2022-08-02T03:59:19;15.30;99.90
53204;DHT22;39086;54.424;18.456;2022-08-02T04:00:22;15.10;99.90
53204;DHT22;39086;54.424;18.456;2022-08-02T04:01:31;15.10;99.90
53204;DHT22;39086;54.424;18.456;2022-08-02T04:02:41;15.20;99.90
53204;DHT22;39086;54.424;18.456;2022-08-02T04:03:45;15.20;99.90
53204;DHT22;39086;54.424;18.456;2022-08-02T04:04:48;15.20;99.90
53204;DHT22;39086;54.424;18.456;2022-08-02T04:05:51;15.30;99.90
53204;DHT22;39086;54.424;18.456;2022-08-02T04:07:05;15.20;99.90
53204;DHT22;39086;54.424;18.456;2022-08-02T04:08:15;15.30;99.90
53204;DHT22;39086;54.424;18.456;2022-08-02T04:09:38;15.30;99.90
53204;DHT22;39086;54.424;18.456;2022-08-02T04:10:53;15.30;99.90
53204;DHT22;39086;54.424;18.456;2022-08-02T04:12:14;15.30;99.90
53204;DHT22;39086;54.424;18.456;2022-08-02T04:13:27;15.40;99.90
53204;DHT22;39086;54.424;18.456;2022-08-02T04:14:36;15.30;99.90
53204;DHT22;39086;54.424;18.456;2022-08-02T04:15:40;15.20;99.90
53204;DHT22;39086;54.424;18.456;2022-08-02T04:16:44;15.40;99.90
53204;DHT22;39086;54.424;18.456;2022-08-02T04:17:55;15.50;99.90
53204;DHT22;39086;54.424;18.456;2022-08-02T04:19:03;15.50;99.90
53204;DHT22;39086;54.424;18.456;2022-08-02T04:20:11;15.50;99.90
53204;DHT22;39086;54.424;18.456;2022-08-02T04:21:18;15.50;99.90
53204;DHT22;39086;54.424;18.456;2022-08-02T04:22:24;15.50;99.90
53204;DHT22;39086;54.424;18.456;2022-08-02T04:23:36;15.50;99.90
53204;DHT22;39086;54.424;18.456;2022-08-02T04:24:44;15.50;99.90
53204;DHT22;39086;54.424;18.456;2022-08-02T04:25:51;15.50;99.90
53204;DHT22;39086;54.424;18.456;2022-08-02T04:26:55;15.50;99.90
53204;DHT22;39086;54.424;18.456;2022-08-02T04:28:20;15.60;99.90
53204;DHT22;39086;54.424;18.456;2022-08-02T04:29:31;15.60;99.90
53204;DHT22;39086;54.424;18.456;2022-08-02T04:30:35;15.70;99.90
53204;DHT22;39086;54.424;18.456;2022-08-02T04:31:38;15.60;99.90
53204;DHT22;39086;54.424;18.456;2022-08-02T04:32:44;15.60;99.90
53204;DHT22;39086;54.424;18.456;2022-08-02T04:33:52;15.60;99.90
53204;DHT22;39086;54.424;18.456;2022-08-02T04:35:04;15.60;99.90
53204;DHT22;39086;54.424;18.456;2022-08-02T04:36:23;15.70;99.90
53204;DHT22;39086;54.424;18.456;2022-08-02T04:37:33;15.70;99.90
53204;DHT22;39086;54.424;18.456;2022-08-02T04:39:02;15.80;99.90
53204;DHT22;39086;54.424;18.456;2022-08-02T04:40:12;15.80;99.90
53204;DHT22;39086;54.424;18.456;2022-08-02T04:41:16;15.90;99.90
53204;DHT22;39086;54.424;18.456;2022-08-02T04:42:20;15.80;99.90
53204;DHT22;39086;54.424;18.456;2022-08-02T04:43:23;15.90;99.90
53204;DHT22;39086;54.424;18.456;2022-08-02T04:44:32;16.00;99.90
53204;DHT22;39086;54.424;18.456;2022-08-02T04:45:36;15.90;99.90
53204;DHT22;39086;54.424;18.456;2022-08-02T04:46:39;16.00;99.90
53204;DHT22;39086;54.424;18.456;2022-08-02T04:47:43;15.90;99.90
53204;DHT22;39086;54.424;18.456;2022-08-02T04:49:05;15.90;99.90
53204;DHT22;39086;54.424;18.456;2022-08-02T04:50:16;16.00;99.90
53204;DHT22;39086;54.424;18.456;2022-08-02T04:51:18;15.90;99.90
53204;DHT22;39086;54.424;18.456;2022-08-02T04:52:39;16.00;99.90
53204;DHT22;39086;54.424;18.456;2022-08-02T04:53:46;16.00;99.90
53204;DHT22;39086;54.424;18.456;2022-08-02T04:55:09;16.10;99.90
53204;DHT22;39086;54.424;18.456;2022-08-02T04:56:12;16.00;99.90
53204;DHT22;39086;54.424;18.456;2022-08-02T04:57:15;16.00;99.90
53204;DHT22;39086;54.424;18.456;2022-08-02T04:58:36;16.00;99.90
53204;DHT22;39086;54.424;18.456;2022-08-02T04:59:41;16.10;99.90
53204;DHT22;39086;54.424;18.456;2022-08-02T05:00:55;16.20;99.90
53204;DHT22;39086;54.424;18.456;2022-08-02T05:01:59;16.20;99.90
53204;DHT22;39086;54.424;18.456;2022-08-02T05:03:02;16.10;99.90
53204;DHT22;39086;54.424;18.456;2022-08-02T05:04:05;16.30;99.90
53204;DHT22;39086;54.424;18.456;2022-08-02T05:05:16;16.30;99.90
53204;DHT22;39086;54.424;18.456;2022-08-02T05:06:19;16.30;99.90
53204;DHT22;39086;54.424;18.456;2022-08-02T05:07:21;16.30;99.90
53204;DHT22;39086;54.424;18.456;2022-08-02T05:08:37;16.20;99.90
53204;DHT22;39086;54.424;18.456;2022-08-02T05:09:40;16.20;99.90
53204;DHT22;39086;54.424;18.456;2022-08-02T05:10:55;16.40;99.90
53204;DHT22;39086;54.424;18.456;2022-08-02T05:12:06;16.40;99.90
53204;DHT22;39086;54.424;18.456;2022-08-02T05:13:10;16.40;99.90
53204;DHT22;39086;54.424;18.456;2022-08-02T05:14:27;16.30;99.90
53204;DHT22;39086;54.424;18.456;2022-08-02T05:15:30;16.50;99.90
53204;DHT22;39086;54.424;18.456;2022-08-02T05:16:34;16.50;99.90
53204;DHT22;39086;54.424;18.456;2022-08-02T05:17:43;16.50;99.90
53204;DHT22;39086;54.424;18.456;2022-08-02T05:18:49;16.40;99.90
53204;DHT22;39086;54.424;18.456;2022-08-02T05:19:52;16.50;99.90
53204;DHT22;39086;54.424;18.456;2022-08-02T05:21:03;16.60;99.90
53204;DHT22;39086;54.424;18.456;2022-08-02T05:22:06;16.50;99.90
53204;DHT22;39086;54.424;18.456;2022-08-02T05:23:15;16.40;99.90
53204;DHT22;39086;54.424;18.456;2022-08-02T05:24:19;16.60;99.90
53204;DHT22;39086;54.424;18.456;2022-08-02T05:25:21;16.60;99.90
53204;DHT22;39086;54.424;18.456;2022-08-02T05:26:24;16.60;99.90
53204;DHT22;39086;54.424;18.456;2022-08-02T05:27:33;16.60;99.90
53204;DHT22;39086;54.424;18.456;2022-08-02T05:28:37;16.70;99.90
53204;DHT22;39086;54.424;18.456;2022-08-02T05:29:39;16.80;99.90
53204;DHT22;39086;54.424;18.456;2022-08-02T05:30:55;16.70;99.90
53204;DHT22;39086;54.424;18.456;2022-08-02T05:31:57;16.80;99.90
53204;DHT22;39086;54.424;18.456;2022-08-02T05:33:06;16.70;99.90
53204;DHT22;39086;54.424;18.456;2022-08-02T05:34:09;16.80;99.90
53204;DHT22;39086;54.424;18.456;2022-08-02T05:35:15;16.80;99.90
53204;DHT22;39086;54.424;18.456;2022-08-02T05:36:19;16.80;99.90
53204;DHT22;39086;54.424;18.456;2022-08-02T05:37:29;16.80;99.90
53204;DHT22;39086;54.424;18.456;2022-08-02T05:38:36;16.90;99.90
53204;DHT22;39086;54.424;18.456;2022-08-02T05:39:39;16.80;99.90
53204;DHT22;39086;54.424;18.456;2022-08-02T05:40:57;16.80;99.90
53204;DHT22;39086;54.424;18.456;2022-08-02T05:42:00;16.90;99.90
53204;DHT22;39086;54.424;18.456;2022-08-02T05:43:11;16.90;99.90
53204;DHT22;39086;54.424;18.456;2022-08-02T05:44:15;16.80;99.90
53204;DHT22;39086;54.424;18.456;2022-08-02T05:45:17;16.90;99.90
53204;DHT22;39086;54.424;18.456;2022-08-02T05:46:20;16.90;99.90
53204;DHT22;39086;54.424;18.456;2022-08-02T05:47:29;16.80;99.90
53204;DHT22;39086;54.424;18.456;2022-08-02T05:48:40;17.00;99.90
53204;DHT22;39086;54.424;18.456;2022-08-02T05:49:43;16.90;99.90
53204;DHT22;39086;54.424;18.456;2022-08-02T05:50:49;16.90;99.90
53204;DHT22;39086;54.424;18.456;2022-08-02T05:52:01;16.90;99.90
53204;DHT22;39086;54.424;18.456;2022-08-02T05:53:18;17.00;99.90
53204;DHT22;39086;54.424;18.456;2022-08-02T05:54:30;17.00;99.90
53204;DHT22;39086;54.424;18.456;2022-08-02T05:55:55;17.00;99.90
53204;DHT22;39086;54.424;18.456;2022-08-02T05:57:03;17.10;99.90
53204;DHT22;39086;54.424;18.456;2022-08-02T05:58:19;17.00;99.90
53204;DHT22;39086;54.424;18.456;2022-08-02T05:59:30;17.00;99.90
53204;DHT22;39086;54.424;18.456;2022-08-02T06:00:34;17.10;99.90
53204;DHT22;39086;54.424;18.456;2022-08-02T06:01:39;17.10;99.90
53204;DHT22;39086;54.424;18.456;2022-08-02T06:03:14;17.00;99.90
53204;DHT22;39086;54.424;18.456;2022-08-02T06:04:35;17.10;99.90
53204;DHT22;39086;54.424;18.456;2022-08-02T06:05:50;17.20;99.90
53204;DHT22;39086;54.424;18.456;2022-08-02T06:07:00;17.20;99.90
53204;DHT22;39086;54.424;18.456;2022-08-02T06:08:06;17.20;99.90
53204;DHT22;39086;54.424;18.456;2022-08-02T06:09:14;17.10;99.90
53204;DHT22;39086;54.424;18.456;2022-08-02T06:10:28;17.20;99.90
53204;DHT22;39086;54.424;18.456;2022-08-02T06:11:49;17.20;99.90
53204;DHT22;39086;54.424;18.456;2022-08-02T06:13:07;17.20;99.90
53204;DHT22;39086;54.424;18.456;2022-08-02T06:14:15;17.30;99.90
53204;DHT22;39086;54.424;18.456;2022-08-02T06:15:32;17.30;99.90
53204;DHT22;39086;54.424;18.456;2022-08-02T06:16:43;17.30;99.90
53204;DHT22;39086;54.424;18.456;2022-08-02T06:17:47;17.30;99.90
53204;DHT22;39086;54.424;18.456;2022-08-02T06:18:56;17.30;99.90
53204;DHT22;39086;54.424;18.456;2022-08-02T06:20:00;17.40;99.90
53204;DHT22;39086;54.424;18.456;2022-08-02T06:21:13;17.40;99.90
53204;DHT22;39086;54.424;18.456;2022-08-02T06:22:39;17.40;99.90
53204;DHT22;39086;54.424;18.456;2022-08-02T06:23:43;17.50;99.90
53204;DHT22;39086;54.424;18.456;2022-08-02T06:25:00;17.50;99.90
53204;DHT22;39086;54.424;18.456;2022-08-02T06:26:06;17.60;99.90
53204;DHT22;39086;54.424;18.456;2022-08-02T06:27:15;17.50;99.90
53204;DHT22;39086;54.424;18.456;2022-08-02T06:28:20;17.50;99.90
53204;DHT22;39086;54.424;18.456;2022-08-02T06:29:22;17.60;99.90
53204;DHT22;39086;54.424;18.456;2022-08-02T06:30:27;17.70;99.90
53204;DHT22;39086;54.424;18.456;2022-08-02T06:31:37;17.70;99.90
53204;DHT22;39086;54.424;18.456;2022-08-02T06:32:48;17.70;99.90
53204;DHT22;39086;54.424;18.456;2022-08-02T06:33:52;17.70;99.90
53204;DHT22;39086;54.424;18.456;2022-08-02T06:34:55;17.60;99.90
53204;DHT22;39086;54.424;18.456;2022-08-02T06:36:02;17.70;99.90
53204;DHT22;39086;54.424;18.456;2022-08-02T06:37:18;17.70;99.90
53204;DHT22;39086;54.424;18.456;2022-08-02T06:38:26;17.70;99.90
53204;DHT22;39086;54.424;18.456;2022-08-02T06:39:35;17.70;99.90
53204;DHT22;39086;54.424;18.456;2022-08-02T06:40:45;17.80;99.90
53204;DHT22;39086;54.424;18.456;2022-08-02T06:41:51;17.90;99.90
53204;DHT22;39086;54.424;18.456;2022-08-02T06:43:11;17.80;99.90
53204;DHT22;39086;54.424;18.456;2022-08-02T06:44:15;17.90;99.90
53204;DHT22;39086;54.424;18.456;2022-08-02T06:45:38;17.90;99.90
53204;DHT22;39086;54.424;18.456;2022-08-02T06:46:42;18.10;99.90
53204;DHT22;39086;54.424;18.456;2022-08-02T06:48:04;17.90;99.90
53204;DHT22;39086;54.424;18.456;2022-08-02T06:49:14;18.00;99.90
53204;DHT22;39086;54.424;18.456;2022-08-02T06:50:17;18.10;99.90
53204;DHT22;39086;54.424;18.456;2022-08-02T06:51:21;18.00;99.90
53204;DHT22;39086;54.424;18.456;2022-08-02T06:52:24;18.10;99.90
53204;DHT22;39086;54.424;18.456;2022-08-02T06:53:37;18.10;99.90
53204;DHT22;39086;54.424;18.456;2022-08-02T06:54:40;18.20;99.90
53204;DHT22;39086;54.424;18.456;2022-08-02T06:55:43;18.20;99.90
53204;DHT22;39086;54.424;18.456;2022-08-02T06:56:46;18.40;99.90
53204;DHT22;39086;54.424;18.456;2022-08-02T06:57:49;18.40;99.90
53204;DHT22;39086;54.424;18.456;2022-08-02T06:58:58;18.50;99.90
53204;DHT22;39086;54.424;18.456;2022-08-02T07:00:08;18.40;99.90
53204;DHT22;39086;54.424;18.456;2022-08-02T07:01:12;18.50;99.90
53204;DHT22;39086;54.424;18.456;2022-08-02T07:02:15;18.50;99.90
53204;DHT22;39086;54.424;18.456;2022-08-02T07:03:18;18.40;99.90
53204;DHT22;39086;54.424;18.456;2022-08-02T07:04:28;18.40;99.90
53204;DHT22;39086;54.424;18.456;2022-08-02T07:05:31;18.40;99.90
53204;DHT22;39086;54.424;18.456;2022-08-02T07:06:35;18.40;99.90
53204;DHT22;39086;54.424;18.456;2022-08-02T07:07:37;18.40;99.90
53204;DHT22;39086;54.424;18.456;2022-08-02T07:08:48;18.40;99.90
53204;DHT22;39086;54.424;18.456;2022-08-02T07:10:12;18.50;99.90
53204;DHT22;39086;54.424;18.456;2022-08-02T07:11:28;18.50;99.90